Stjerne skud på nattehimlen netop nu: Tauriderne og Leoniderne 6.november-30.november. Se langvarige stjerneskud med lange haler.
  • Kilde planetariet
  • Ny Tablet venlig Vejr3


  • Vejr3>N more information Vejr3>N


    3 timers nedbørs radar more information rain snow radar


    besøg nogle andre vejrsider:

    Template dokumentation
    og downloads

    And another site


    Select another period ( hide this area )

    enheder periode Custom range Directly to
    metrisk engelsk både
    dagens ugenligt månedlig årligt
    use both date-selectors for a custom range
    forgående dag
    With this date

    WeatherUnderground graphs for this period ( click here )


    dagens sammenfatning af tirsdag 19 november 2019
    tid Temp. ( °C ) Dew pt. ( °C ) vind ( km/h ) fra vindstød ( km/h ) lufttryk ( hPa ) Humid.( % ) Rainrate ( cm ) solenergi ( W/m2 )
    høj8,1 7,3 27,8 sø ( 1058/3158 ) 35,4 1013,7 97 0,30 37.7
    gennemsnit6,6 5,5 11,9 sø #89/266 17,7 1006,4 92 0,60 25 #90/266
    lav5,1 3,8 3,2   4,8 1003,0 88 -  
    dagens Tabular details for tirsdag 19 november 2019
    tid Temp. ( °C ) Dew pt. ( °C ) vind ( km/h ) fra vindstød ( km/h ) lufttryk ( hPa ) Humid.( % ) Rainrate ( cm ) solenergi ( W/m2 )
    00:00 6,8 5,9 14,5 ssø 22,5 1003,0 94 - -
    00:05 6,8 5,9 16,1 ssø 24,1 1003,0 94 - -
    00:10 6,8 5,9 24,1 13,2 1003,1 94 - -
    00:15 6,7 5,8 14,8 ssø 7,9 1003,1 94 - -
    00:20 6,7 5,8 14,5 ssø 20,9 1003,2 94 - -
    00:25 6,7 5,8 14,5 ssø 29,0 1003,3 94 - -
    00:30 6,7 5,8 8,0 ssø 19,3 1003,4 94 - -
    00:35 6,7 5,8 20,9 ssø 32,2 1003,4 94 - -
    00:40 6,6 5,6 24,1 ssø 35,4 1003,4 93 - -
    00:45 6,6 5,4 20,9 syd 27,4 1003,4 92 - -
    00:50 6,6 5,3 14,5 ssø 20,9 1003,4 92 - -
    00:55 6,6 5,3 11,3 ssø 16,1 1003,4 92 - -
    01:00 6,5 5,3 12,9 ssø 22,5 1003,4 92 - -
    01:05 6,5 5,3 12,9 ssø 19,3 1003,4 92 - -
    01:10 6,5 5,3 9,7 ssø 19,3 1003,4 92 - -
    01:15 6,5 5,3 16,1 ssø 20,9 1003,5 92 - -
    01:20 6,5 5,3 19,3 ssø 27,4 1003,5 92 - -
    01:25 6,5 5,3 12,9 ssø 24,1 1003,5 92 - -
    01:30 6,6 5,3 16,1 ssø 29,0 1003,4 92 - -
    01:35 6,6 5,3 22,5 32,2 1003,4 92 - -
    01:40 6,6 5,4 14,5 24,1 1003,4 92 - -
    01:45 6,7 5,4 12,9 19,3 1003,4 92 - -
    01:50 6,7 5,4 16,1 24,1 1003,4 92 - -
    01:55 6,7 5,4 14,5 24,1 1003,4 92 - -
    02:00 6,6 5,4 14,5 25,7 1003,5 92 - -
    02:05 6,7 5,3 20,9 29,0 1003,4 91 - -
    02:10 6,7 5,3 20,9 27,4 1003,4 91 - -
    02:15 6,7 5,3 12,9 19,3 1003,4 91 - -
    02:20 6,7 5,2 25,7 33,8 1003,4 90 - -
    02:25 6,7 5,1 27,8 øsø 18,0 1003,4 89 - -
    02:30 6,7 5,1 14,5 24,1 1003,4 89 - -
    02:35 6,7 5,2 20,9 32,2 1003,4 90 - -
    02:40 6,7 5,2 16,1 25,7 1003,4 90 - -
    02:45 6,7 5,2 16,1 24,1 1003,3 90 - -
    02:50 6,6 5,1 14,5 19,3 1003,3 90 - -
    02:55 6,6 5,1 14,5 20,9 1003,2 90 - -
    03:00 6,6 5,1 14,5 20,9 1003,2 90 - -
    03:05 6,6 5,1 14,5 20,9 1003,1 90 - -
    03:10 6,6 5,1 11,3 19,3 1003,1 90 - -
    03:15 6,6 5,2 12,9 16,1 1003,1 91 - -
    03:20 6,6 5,2 11,3 19,3 1003,0 91 - -
    03:25 6,6 5,2 12,9 19,3 1003,1 91 - -
    03:30 6,6 5,2 9,7 14,5 1003,1 91 - -
    03:35 6,5 5,2 11,3 19,3 1003,0 91 - -
    03:40 6,5 5,1 9,7 øsø 16,1 1003,1 91 - -
    03:45 6,5 5,1 9,7 øsø 14,5 1003,1 91 - -
    03:50 6,5 5,1 9,7 øsø 12,9 1003,0 91 - -
    03:55 6,5 5,1 8,0 øsø 11,3 1003,0 91 - -
    04:00 6,4 5,2 9,7 øsø 14,5 1003,1 92 - -
    04:05 6,4 5,2 11,3 øsø 11,3 1003,0 92 - -
    04:10 6,4 5,3 12,9 øsø 19,3 1003,1 93 - -
    04:15 6,3 5,3 9,7 20,9 1003,1 93 - -
    04:20 6,3 5,2 14,5 20,9 1003,0 93 0,30 -
    04:25 6,2 5,1 12,9 25,7 1003,0 93 - -
    04:30 6,1 4,9 22,2 13,0 1003,0 92 0,30 -
    04:35 6,1 4,8 11,3 19,3 1003,0 92 - -
    04:40 6,0 4,8 9,7 19,3 1003,1 92 - -
    04:45 5,9 4,7 12,9 19,3 1003,1 92 - -
    04:50 5,9 4,7 19,3 25,7 1003,1 92 - -
    04:55 6,0 4,8 9,7 14,5 1003,2 92 - -
    05:00 6,0 4,6 19,3 24,1 1003,2 91 - -
    05:05 5,9 4,6 11,3 16,1 1003,2 91 - -
    05:10 5,9 4,6 9,7 9,7 1003,2 91 - -
    05:15 5,9 4,6 11,3 øsø 16,1 1003,2 91 - -
    05:20 5,9 4,5 12,9 19,3 1003,2 91 - -
    05:25 5,8 4,5 12,9 19,3 1003,1 91 - -
    05:30 5,8 4,4 16,1 27,4 1003,2 91 - -
    05:35 5,7 4,2 16,1 20,9 1003,1 90 - -
    05:40 5,6 4,1 12,9 24,1 1003,2 90 - -
    05:45 5,4 3,9 9,7 16,1 1003,1 90 - -
    05:50 5,3 3,8 9,7 11,3 1003,1 90 - -
    05:55 5,3 3,8 9,7 øsø 14,5 1003,1 90 - -
    06:00 5,3 3,8 9,7 øsø 19,3 1003,1 90 - -
    06:05 5,3 3,8 12,9 øsø 19,3 1003,1 90 - -
    06:10 5,4 3,9 14,5 øsø 22,5 1003,1 90 - -
    06:15 5,4 3,9 12,9 øsø 20,9 1003,2 90 - -
    06:20 5,5 4,0 9,7 19,3 1003,2 90 - -
    06:25 5,6 4,1 9,7 øsø 11,3 1003,3 90 - -
    06:30 5,6 4,1 9,7 øsø 16,1 1003,3 90 - -
    06:35 5,6 4,1 12,9 øsø 20,9 1003,3 90 - -
    06:40 5,6 4,1 12,9 øsø 19,3 1003,3 90 - -
    06:45 5,6 4,1 12,9 øsø 16,1 1003,3 90 - -
    06:50 5,6 4,2 12,9 øsø 19,3 1003,4 91 - -
    06:55 5,5 4,2 12,9 øsø 16,1 1003,4 91 - -
    07:00 5,5 4,2 11,3 øsø 20,9 1003,5 91 - -
    07:05 5,4 4,1 12,9 øsø 22,5 1003,5 91 - -
    07:10 5,4 4,1 12,9 19,3 1003,5 91 - -
    07:15 5,4 4,1 12,9 øsø 19,3 1003,5 91 - -
    07:20 5,4 4,1 14,5 øsø 19,3 1003,5 91 - -
    07:25 5,3 4,0 14,5 øsø 24,1 1003,5 91 - -
    07:30 5,3 4,0 12,9 øsø 20,9 1003,6 91 - -
    07:35 5,3 4,0 11,3 øsø 12,9 1003,6 91 - -
    07:40 5,3 4,0 12,9 øsø 20,9 1003,7 91 - -
    07:45 5,3 4,0 11,3 øsø 16,1 1003,7 91 - -
    07:50 5,4 4,0 11,3 øsø 16,1 1003,7 91 - -
    07:55 5,4 3,9 11,3 øsø 19,3 1003,7 90 - -
    08:00 5,4 3,9 11,3 øsø 14,5 1003,7 90 - -
    08:05 5,4 3,9 11,3 øsø 14,5 1003,8 90 - -
    08:10 5,4 3,9 12,9 øsø 14,5 1003,9 90 - -
    08:15 5,4 3,9 9,7 øsø 11,3 1003,9 90 - -
    08:20 5,4 3,9 11,3 16,1 1003,9 90 - -
    08:25 5,4 3,9 8,0 11,3 1004,0 90 - -
    08:30 5,4 3,9 8,0 øsø 9,7 1004,0 90 - -
    08:35 5,4 3,9 9,7 øsø 14,5 1004,0 90 - -
    08:40 5,3 3,8 11,3 øsø 16,1 1004,1 90 - -
    08:45 5,3 3,8 11,3 14,5 1004,1 90 - -
    08:50 5,3 4,0 9,7 16,1 1004,2 91 - -
    08:55 5,3 3,9 9,7 øsø 19,3 1004,3 91 - -
    09:00 5,3 3,9 11,3 øsø 16,1 1004,3 91 - 1.2
    09:05 5,2 4,0 14,5 øsø 16,1 1004,3 92 - 2.5
    09:10 5,2 3,9 9,7 øsø 14,5 1004,5 92 - 3.9
    09:15 5,1 4,1 9,7 øsø 19,3 1004,5 93 - 5
    09:20 5,1 4,0 9,7 øsø 16,1 1004,4 93 - 6.4
    09:25 5,1 4,0 8,0 øsø 14,5 1004,4 93 - 7.5
    09:30 5,1 4,0 14,8 øsø 9,3 1004,6 93 - 26
    09:35 5,1 4,2 9,7 øsø 12,9 1004,6 94 - 10.3
    09:40 5,1 4,2 8,0 øsø 14,5 1004,6 94 - 11.4
    09:45 5,1 4,1 8,0 øsø 11,3 1004,6 93 - 12.7
    09:50 5,2 4,1 4,8 øsø 9,7 1004,6 93 - 13.8
    09:55 5,2 4,2 4,8 øsø 8,0 1004,7 93 - 15
    10:00 5,2 4,2 8,0 øsø 16,1 1004,7 93 - 16.3
    10:05 5,3 4,2 8,0 øsø 11,3 1004,7 93 - 17.4
    10:10 5,3 4,3 8,0 øsø 11,3 1004,8 93 - 18.5
    10:15 5,4 4,3 8,0 8,0 1004,8 93 - 19.6
    10:20 5,4 4,2 8,0 9,7 1004,9 92 - 20.7
    10:25 5,4 4,2 8,0 16,1 1004,9 92 - 21.8
    10:30 5,5 4,3 11,1 ssø 7,9 1004,9 92 - 22.9
    10:35 5,5 4,3 9,7 12,9 1005,0 92 - 24
    10:40 5,5 4,3 8,0 9,7 1005,1 92 - 24.9
    10:45 5,5 4,3 8,0 9,7 1005,1 92 - 26.1
    10:50 5,5 4,4 4,8 8,0 1005,1 93 - 27
    10:55 5,5 4,4 4,8 ssø 9,7 1005,1 93 - 28
    11:00 5,6 4,5 4,8 9,7 1005,1 93 - 28.8
    11:05 5,6 4,6 4,8 8,0 1005,1 93 - 29.6
    11:10 5,7 4,4 8,0 5,8 1005,2 92 - 30.3
    11:15 5,7 4,5 4,8 8,0 1005,2 92 - 31
    11:20 5,8 4,6 8,0 9,7 1005,2 92 - 31.7
    11:25 5,9 4,7 4,8 9,7 1005,3 92 - 32.4
    11:30 5,9 4,7 8,0 9,7 1005,3 92 - 33
    11:35 5,9 4,6 3,2 ssø 8,0 1005,4 91 - 33.6
    11:40 6,0 4,7 4,8 syd 8,0 1005,6 91 - 34.2
    11:45 6,0 4,7 3,2 ssø 6,4 1005,6 91 - 34.8
    11:50 6,0 4,7 4,8 ssø 4,8 1005,6 91 - 35.2
    11:55 6,1 4,8 4,8 ssø 8,0 1005,7 91 - 35.7
    12:00 6,2 4,9 4,8 syd 8,0 1005,7 91 - 35.8
    12:05 6,3 4,8 3,2 syd 6,4 1005,7 90 - 36.1
    12:10 6,3 4,7 8,0 syd 14,5 1005,9 89 - 36.5
    12:15 6,3 4,7 9,7 syd 12,9 1005,9 89 - 36.7
    12:20 6,3 4,7 4,8 syd 4,8 1006,0 89 - 37
    12:25 6,4 4,9 8,0 syd 9,7 1006,1 90 - 37.3
    12:30 6,4 4,9 4,8 syd 9,7 1006,1 90 - 37.3
    12:35 6,4 4,9 3,2 syd 14,5 1006,1 90 - 37.5
    12:40 6,4 4,8 4,8 syd 9,7 1006,1 89 - 37.5
    12:45 6,5 4,8 8,0 syd 8,0 1006,1 89 - 37.6
    12:50 6,5 4,7 8,0 ssø 11,3 1006,2 88 - 37.7
    12:55 6,4 4,6 4,8 ssø 8,0 1006,2 88 - 37.7
    13:00 6,4 4,6 4,8 ssø 8,0 1006,3 88 - 37.5
    13:05 6,4 4,6 4,8 ssø 11,3 1006,3 88 - 37.5
    13:10 6,4 4,8 8,0 ssø 11,3 1006,4 89 - 37.3
    13:15 6,5 4,8 4,8 9,7 1006,4 89 - 37.1
    13:20 6,5 5,0 4,8 ssø 8,0 1006,4 90 - 36.9
    13:25 6,6 5,0 9,7 ssø 12,9 1006,5 90 - 36.5
    13:30 6,5 5,0 4,8 8,0 1006,6 90 - 36.2
    13:35 6,5 5,0 9,7 9,7 1006,5 90 - 35.8
    13:40 6,5 5,1 8,0 9,7 1006,7 91 - 35.4
    13:45 6,5 5,1 8,0 11,3 1006,6 91 - 34.9
    13:50 6,5 5,1 4,8 8,0 1006,7 91 - 34.5
    13:55 6,5 5,1 9,7 ssø 9,7 1006,8 91 - 34
    14:00 6,5 5,3 8,0 11,3 1006,8 92 - 33.5
    14:05 6,6 5,3 9,7 14,5 1006,9 92 - 32.7
    14:10 6,6 5,3 8,0 11,3 1007,0 92 - 32.1
    14:15 6,6 5,4 8,0 9,7 1007,0 92 - 31.3
    14:20 6,7 5,6 8,0 14,5 1007,1 93 - 30.5
    14:25 6,7 5,6 11,1 8,5 1007,1 93 - 14
    14:30 6,7 5,7 8,0 14,5 1007,1 93 - 28.8
    14:35 6,7 5,7 9,7 12,9 1007,1 93 - 28.1
    14:40 6,7 5,8 11,3 19,3 1007,2 94 - 27.1
    14:45 6,7 5,8 8,0 11,3 1007,3 94 - 26.3
    14:50 6,7 6,0 9,7 11,3 1007,4 95 - 25.5
    14:55 6,7 6,0 9,7 12,9 1007,4 95 - 24.6
    15:00 6,7 6,0 11,3 22,5 1007,5 95 - 23.7
    15:05 6,7 6,1 11,3 14,5 1007,5 96 - 22.6
    15:10 6,8 6,2 11,3 11,3 1007,6 96 - 21.5
    15:15 6,8 6,2 12,9 24,1 1007,6 96 0,30 20.6
    15:20 6,9 6,3 11,3 19,3 1007,7 96 - 19.4
    15:25 7,1 6,6 11,3 ssø 19,3 1007,7 97 - 18.2
    15:30 7,2 6,7 9,7 ssø 14,5 1007,8 97 - 17
    15:35 7,3 6,8 12,9 ssø 16,1 1007,8 97 - 15.9
    15:40 7,4 6,9 12,9 ssø 19,3 1007,9 97 - 14.8
    15:45 7,5 7,1 12,9 syd 29,0 1008,0 97 - 13.5
    15:50 7,6 7,1 12,9 syd 16,1 1008,1 97 - 12.4
    15:55 7,6 7,2 11,3 syd 24,1 1008,2 97 - 11.2
    16:00 7,7 7,2 14,5 syd 25,7 1008,2 97 - 10.2
    16:05 7,7 7,2 16,1 syd 32,2 1008,3 97 - 9
    16:10 7,7 7,2 12,9 syd 16,1 1008,5 97 - 8
    16:15 7,7 7,2 11,3 syd 19,3 1008,5 97 - 6.9
    16:20 7,7 7,2 24,1 18,2 1008,7 97 - -
    16:25 7,7 7,2 14,5 ssø 20,9 1008,8 97 - 4.7
    16:30 7,7 7,2 11,3 syd 22,5 1008,9 97 - 3.5
    16:35 7,7 7,2 11,3 syd 19,3 1008,9 97 - -
    16:40 7,7 7,1 14,5 syd 22,5 1008,9 96 - -
    16:45 7,7 7,1 11,3 syd 19,3 1009,0 96 - -
    16:50 7,7 7,1 12,9 syd 19,3 1009,1 96 - -
    16:55 7,7 7,3 14,5 syd 22,5 1009,2 97 - -
    17:00 7,7 7,3 14,5 syd 24,1 1009,3 97 - -
    17:05 7,8 7,3 9,7 syd 14,5 1009,4 97 - -
    17:10 7,8 7,3 12,9 syd 25,7 1009,4 97 - -
    17:15 7,8 7,3 11,3 syd 20,9 1009,4 97 - -
    17:20 7,8 7,3 12,9 syd 19,3 1009,6 97 - -
    17:25 7,8 7,2 11,3 syd 25,7 1009,7 96 - -
    17:30 7,8 7,2 9,7 syd 20,9 1009,8 96 - -
    17:35 7,8 7,2 12,9 syd 24,1 1009,9 96 - -
    17:40 7,8 7,2 18,5 11,4 1010,1 96 - -
    17:45 7,8 7,2 19,3 syd 24,1 1010,1 96 - -
    17:50 7,8 7,2 14,5 syd 24,1 1010,2 96 - -
    17:55 7,8 7,2 8,0 syd 27,4 1010,2 96 - -
    18:00 7,8 7,2 12,9 syd 24,1 1010,3 96 - -
    18:05 7,8 7,2 24,1 syd 17,2 1010,4 96 - -
    18:10 7,8 7,2 20,9 ssø 9,7 1010,5 96 - -
    18:15 7,8 7,2 16,1 syd 22,5 1010,5 96 - -
    18:20 7,9 7,1 11,3 syd 20,9 1010,6 95 - -
    18:25 7,9 7,1 12,9 syd 20,9 1010,7 95 - -
    18:30 7,9 7,1 11,3 syd 24,1 1010,8 95 - -
    18:35 7,9 7,1 11,3 syd 19,3 1010,9 95 - -
    18:40 7,9 7,2 12,9 syd 24,1 1011,0 95 - -
    18:45 7,9 7,2 4,8 syd 19,3 1011,0 95 - -
    18:50 7,9 7,2 24,1 ssø 11,6 1011,2 95 - -
    18:55 7,9 7,0 11,3 syd 19,3 1011,2 94 - -
    19:00 7,9 7,0 12,9 syd 16,1 1011,2 94 - -
    19:05 7,9 7,1 11,3 syd 19,3 1011,3 94 - -
    19:10 7,9 7,0 12,9 syd 22,5 1011,4 94 - -
    19:15 7,9 7,0 11,3 syd 19,3 1011,4 94 - -
    19:20 7,9 7,1 12,9 syd 19,3 1011,5 94 - -
    19:25 7,9 7,1 12,9 syd 20,9 1011,5 94 - -
    19:30 7,9 7,1 16,1 syd 24,1 1011,6 94 - -
    19:35 7,9 7,1 14,5 ssø 20,9 1011,8 94 - -
    19:40 7,9 7,1 14,5 syd 20,9 1011,8 94 - -
    19:45 8,0 7,1 14,5 syd 19,3 1011,8 94 - -
    19:50 8,0 7,1 14,5 syd 27,4 1011,9 94 - -
    19:55 8,0 7,1 19,3 syd 24,1 1011,9 94 - -
    20:00 8,1 7,0 11,3 syd 20,9 1012,0 93 - -
    20:05 8,1 7,0 14,5 syd 22,5 1012,0 93 - -
    20:10 8,1 7,1 14,5 syd 25,7 1012,2 93 - -
    20:15 8,1 7,1 11,3 syd 22,5 1012,3 93 - -
    20:20 8,1 7,0 19,3 øsø 14,6 1012,2 93 - -
    20:25 8,1 7,0 12,9 syd 19,3 1012,3 93 - -
    20:30 8,1 7,0 14,5 syd 25,7 1012,4 93 - -
    20:35 8,0 6,9 14,5 syd 22,5 1012,6 93 - -
    20:40 8,0 6,9 8,0 syd 16,1 1012,7 93 - -
    20:45 7,9 6,9 12,9 ssø 27,4 1012,7 93 - -
    20:50 7,9 6,7 12,9 syd 22,5 1012,8 92 - -
    20:55 7,9 6,7 9,7 syd 19,3 1012,8 92 - -
    21:00 7,9 6,7 20,9 syd 32,2 1012,8 92 - -
    21:05 7,9 6,7 16,1 syd 33,8 1012,9 92 - -
    21:10 7,9 6,7 12,9 syd 22,5 1013,0 92 - -
    21:15 7,9 6,7 14,5 syd 27,4 1013,0 92 - -
    21:20 7,9 6,7 22,5 ssø 10,6 1013,0 92 - -
    21:25 7,9 6,7 12,9 ssø 19,3 1013,2 92 - -
    21:30 7,9 6,7 14,5 ssø 20,9 1013,3 92 - -
    21:35 7,9 6,7 11,3 ssø 19,3 1013,4 92 - -
    21:40 7,8 6,6 12,9 ssø 19,3 1013,5 92 - -
    21:45 7,8 6,6 14,5 ssø 20,9 1013,6 92 - -
    21:50 7,8 6,6 12,9 ssø 22,5 1013,7 92 - -
    21:55 7,7 6,5 12,9 ssø 19,3 1013,6 92 - -
    22:00 7,7 6,4 12,9 ssø 20,9 1013,6 92 - -
    22:05 7,7 6,6 8,0 syd 19,3 1013,7 93 - -
    dagens sammenfatning af tirsdag 19 november 2019
    tid Temp. ( °C ) Dew pt. ( °C ) vind ( km/h ) fra vindstød ( km/h ) lufttryk ( hPa ) Humid.( % ) Rainrate ( cm ) solenergi ( W/m2 )
    høj8,1 7,3 27,8 sø ( 1058/3158 ) 35,4 1013,7 97 0,30 37.7
    gennemsnit6,6 5,5 11,9 sø #89/266 17,7 1006,4 92 0,60 25 #90/266
    lav5,1 3,8 3,2   4,8 1003,0 88 -  
    dagens Tabular details for tirsdag 19 november 2019
    tid Temp. ( °C ) Dew pt. ( °C ) vind ( km/h ) fra vindstød ( km/h ) lufttryk ( hPa ) Humid.( % ) Rainrate ( cm ) solenergi ( W/m2 )
    00:00 6,8 5,9 14,5 ssø 22,5 1003,0 94 - -
    00:05 6,8 5,9 16,1 ssø 24,1 1003,0 94 - -
    00:10 6,8 5,9 24,1 13,2 1003,1 94 - -
    00:15 6,7 5,8 14,8 ssø 7,9 1003,1 94 - -
    00:20 6,7 5,8 14,5 ssø 20,9 1003,2 94 - -
    00:25 6,7 5,8 14,5 ssø 29,0 1003,3 94 - -
    00:30 6,7 5,8 8,0 ssø 19,3 1003,4 94 - -
    00:35 6,7 5,8 20,9 ssø 32,2 1003,4 94 - -
    00:40 6,6 5,6 24,1 ssø 35,4 1003,4 93 - -
    00:45 6,6 5,4 20,9 syd 27,4 1003,4 92 - -
    00:50 6,6 5,3 14,5 ssø 20,9 1003,4 92 - -
    00:55 6,6 5,3 11,3 ssø 16,1 1003,4 92 - -
    01:00 6,5 5,3 12,9 ssø 22,5 1003,4 92 - -
    01:05 6,5 5,3 12,9 ssø 19,3 1003,4 92 - -
    01:10 6,5 5,3 9,7 ssø 19,3 1003,4 92 - -
    01:15 6,5 5,3 16,1 ssø 20,9 1003,5 92 - -
    01:20 6,5 5,3 19,3 ssø 27,4 1003,5 92 - -
    01:25 6,5 5,3 12,9 ssø 24,1 1003,5 92 - -
    01:30 6,6 5,3 16,1 ssø 29,0 1003,4 92 - -
    01:35 6,6 5,3 22,5 32,2 1003,4 92 - -
    01:40 6,6 5,4 14,5 24,1 1003,4 92 - -
    01:45 6,7 5,4 12,9 19,3 1003,4 92 - -
    01:50 6,7 5,4 16,1 24,1 1003,4 92 - -
    01:55 6,7 5,4 14,5 24,1 1003,4 92 - -
    02:00 6,6 5,4 14,5 25,7 1003,5 92 - -
    02:05 6,7 5,3 20,9 29,0 1003,4 91 - -
    02:10 6,7 5,3 20,9 27,4 1003,4 91 - -
    02:15 6,7 5,3 12,9 19,3 1003,4 91 - -
    02:20 6,7 5,2 25,7 33,8 1003,4 90 - -
    02:25 6,7 5,1 27,8 øsø 18,0 1003,4 89 - -
    02:30 6,7 5,1 14,5 24,1 1003,4 89 - -
    02:35 6,7 5,2 20,9 32,2 1003,4 90 - -
    02:40 6,7 5,2 16,1 25,7 1003,4 90 - -
    02:45 6,7 5,2 16,1 24,1 1003,3 90 - -
    02:50 6,6 5,1 14,5 19,3 1003,3 90 - -
    02:55 6,6 5,1 14,5 20,9 1003,2 90 - -
    03:00 6,6 5,1 14,5 20,9 1003,2 90 - -
    03:05 6,6 5,1 14,5 20,9 1003,1 90 - -
    03:10 6,6 5,1 11,3 19,3 1003,1 90 - -
    03:15 6,6 5,2 12,9 16,1 1003,1 91 - -
    03:20 6,6 5,2 11,3 19,3 1003,0 91 - -
    03:25 6,6 5,2 12,9 19,3 1003,1 91 - -
    03:30 6,6 5,2 9,7 14,5 1003,1 91 - -
    03:35 6,5 5,2 11,3 19,3 1003,0 91 - -
    03:40 6,5 5,1 9,7 øsø 16,1 1003,1 91 - -
    03:45 6,5 5,1 9,7 øsø 14,5 1003,1 91 - -
    03:50 6,5 5,1 9,7 øsø 12,9 1003,0 91 - -
    03:55 6,5 5,1 8,0 øsø 11,3 1003,0 91 - -
    04:00 6,4 5,2 9,7 øsø 14,5 1003,1 92 - -
    04:05 6,4 5,2 11,3 øsø 11,3 1003,0 92 - -
    04:10 6,4 5,3 12,9 øsø 19,3 1003,1 93 - -
    04:15 6,3 5,3 9,7 20,9 1003,1 93 - -
    04:20 6,3 5,2 14,5 20,9 1003,0 93 0,30 -
    04:25 6,2 5,1 12,9 25,7 1003,0 93 - -
    04:30 6,1 4,9 22,2 13,0 1003,0 92 0,30 -
    04:35 6,1 4,8 11,3 19,3 1003,0 92 - -
    04:40 6,0 4,8 9,7 19,3 1003,1 92 - -
    04:45 5,9 4,7 12,9 19,3 1003,1 92 - -
    04:50 5,9 4,7 19,3 25,7 1003,1 92 - -
    04:55 6,0 4,8 9,7 14,5 1003,2 92 - -
    05:00 6,0 4,6 19,3 24,1 1003,2 91 - -
    05:05 5,9 4,6 11,3 16,1 1003,2 91 - -
    05:10 5,9 4,6 9,7 9,7 1003,2 91 - -
    05:15 5,9 4,6 11,3 øsø 16,1 1003,2 91 - -
    05:20 5,9 4,5 12,9 19,3 1003,2 91 - -
    05:25 5,8 4,5 12,9 19,3 1003,1 91 - -
    05:30 5,8 4,4 16,1 27,4 1003,2 91 - -
    05:35 5,7 4,2 16,1 20,9 1003,1 90 - -
    05:40 5,6 4,1 12,9 24,1 1003,2 90 - -
    05:45 5,4 3,9 9,7 16,1 1003,1 90 - -
    05:50 5,3 3,8 9,7 11,3 1003,1 90 - -
    05:55 5,3 3,8 9,7 øsø 14,5 1003,1 90 - -
    06:00 5,3 3,8 9,7 øsø 19,3 1003,1 90 - -
    06:05 5,3 3,8 12,9 øsø 19,3 1003,1 90 - -
    06:10 5,4 3,9 14,5 øsø 22,5 1003,1 90 - -
    06:15 5,4 3,9 12,9 øsø 20,9 1003,2 90 - -
    06:20 5,5 4,0 9,7 19,3 1003,2 90 - -
    06:25 5,6 4,1 9,7 øsø 11,3 1003,3 90 - -
    06:30 5,6 4,1 9,7 øsø 16,1 1003,3 90 - -
    06:35 5,6 4,1 12,9 øsø 20,9 1003,3 90 - -
    06:40 5,6 4,1 12,9 øsø 19,3 1003,3 90 - -
    06:45 5,6 4,1 12,9 øsø 16,1 1003,3 90 - -
    06:50 5,6 4,2 12,9 øsø 19,3 1003,4 91 - -
    06:55 5,5 4,2 12,9 øsø 16,1 1003,4 91 - -
    07:00 5,5 4,2 11,3 øsø 20,9 1003,5 91 - -
    07:05 5,4 4,1 12,9 øsø 22,5 1003,5 91 - -
    07:10 5,4 4,1 12,9 19,3 1003,5 91 - -
    07:15 5,4 4,1 12,9 øsø 19,3 1003,5 91 - -
    07:20 5,4 4,1 14,5 øsø 19,3 1003,5 91 - -
    07:25 5,3 4,0 14,5 øsø 24,1 1003,5 91 - -
    07:30 5,3 4,0 12,9 øsø 20,9 1003,6 91 - -
    07:35 5,3 4,0 11,3 øsø 12,9 1003,6 91 - -
    07:40 5,3 4,0 12,9 øsø 20,9 1003,7 91 - -
    07:45 5,3 4,0 11,3 øsø 16,1 1003,7 91 - -
    07:50 5,4 4,0 11,3 øsø 16,1 1003,7 91 - -
    07:55 5,4 3,9 11,3 øsø 19,3 1003,7 90 - -
    08:00 5,4 3,9 11,3 øsø 14,5 1003,7 90 - -
    08:05 5,4 3,9 11,3 øsø 14,5 1003,8 90 - -
    08:10 5,4 3,9 12,9 øsø 14,5 1003,9 90 - -
    08:15 5,4 3,9 9,7 øsø 11,3 1003,9 90 - -
    08:20 5,4 3,9 11,3 16,1 1003,9 90 - -
    08:25 5,4 3,9 8,0 11,3 1004,0 90 - -
    08:30 5,4 3,9 8,0 øsø 9,7 1004,0 90 - -
    08:35 5,4 3,9 9,7 øsø 14,5 1004,0 90 - -
    08:40 5,3 3,8 11,3 øsø 16,1 1004,1 90 - -
    08:45 5,3 3,8 11,3 14,5 1004,1 90 - -
    08:50 5,3 4,0 9,7 16,1 1004,2 91 - -
    08:55 5,3 3,9 9,7 øsø 19,3 1004,3 91 - -
    09:00 5,3 3,9 11,3 øsø 16,1 1004,3 91 - 1.2
    09:05 5,2 4,0 14,5 øsø 16,1 1004,3 92 - 2.5
    09:10 5,2 3,9 9,7 øsø 14,5 1004,5 92 - 3.9
    09:15 5,1 4,1 9,7 øsø 19,3 1004,5 93 - 5
    09:20 5,1 4,0 9,7 øsø 16,1 1004,4 93 - 6.4
    09:25 5,1 4,0 8,0 øsø 14,5 1004,4 93 - 7.5
    09:30 5,1 4,0 14,8 øsø 9,3 1004,6 93 - 26
    09:35 5,1 4,2 9,7 øsø 12,9 1004,6 94 - 10.3
    09:40 5,1 4,2 8,0 øsø 14,5 1004,6 94 - 11.4
    09:45 5,1 4,1 8,0 øsø 11,3 1004,6 93 - 12.7
    09:50 5,2 4,1 4,8 øsø 9,7 1004,6 93 - 13.8
    09:55 5,2 4,2 4,8 øsø 8,0 1004,7 93 - 15
    10:00 5,2 4,2 8,0 øsø 16,1 1004,7 93 - 16.3
    10:05 5,3 4,2 8,0 øsø 11,3 1004,7 93 - 17.4
    10:10 5,3 4,3 8,0 øsø 11,3 1004,8 93 - 18.5
    10:15 5,4 4,3 8,0 8,0 1004,8 93 - 19.6
    10:20 5,4 4,2 8,0 9,7 1004,9 92 - 20.7
    10:25 5,4 4,2 8,0 16,1 1004,9 92 - 21.8
    10:30 5,5 4,3 11,1 ssø 7,9 1004,9 92 - 22.9
    10:35 5,5 4,3 9,7 12,9 1005,0 92 - 24
    10:40 5,5 4,3 8,0 9,7 1005,1 92 - 24.9
    10:45 5,5 4,3 8,0 9,7 1005,1 92 - 26.1
    10:50 5,5 4,4 4,8 8,0 1005,1 93 - 27
    10:55 5,5 4,4 4,8 ssø 9,7 1005,1 93 - 28
    11:00 5,6 4,5 4,8 9,7 1005,1 93 - 28.8
    11:05 5,6 4,6 4,8 8,0 1005,1 93 - 29.6
    11:10 5,7 4,4 8,0 5,8 1005,2 92 - 30.3
    11:15 5,7 4,5 4,8 8,0 1005,2 92 - 31
    11:20 5,8 4,6 8,0 9,7 1005,2 92 - 31.7
    11:25 5,9 4,7 4,8 9,7 1005,3 92 - 32.4
    11:30 5,9 4,7 8,0 9,7 1005,3 92 - 33
    11:35 5,9 4,6 3,2 ssø 8,0 1005,4 91 - 33.6
    11:40 6,0 4,7 4,8 syd 8,0 1005,6 91 - 34.2
    11:45 6,0 4,7 3,2 ssø 6,4 1005,6 91 - 34.8
    11:50 6,0 4,7 4,8 ssø 4,8 1005,6 91 - 35.2
    11:55 6,1 4,8 4,8 ssø 8,0 1005,7 91 - 35.7
    12:00 6,2 4,9 4,8 syd 8,0 1005,7 91 - 35.8
    12:05 6,3 4,8 3,2 syd 6,4 1005,7 90 - 36.1
    12:10 6,3 4,7 8,0 syd 14,5 1005,9 89 - 36.5
    12:15 6,3 4,7 9,7 syd 12,9 1005,9 89 - 36.7
    12:20 6,3 4,7 4,8 syd 4,8 1006,0 89 - 37
    12:25 6,4 4,9 8,0 syd 9,7 1006,1 90 - 37.3
    12:30 6,4 4,9 4,8 syd 9,7 1006,1 90 - 37.3
    12:35 6,4 4,9 3,2 syd 14,5 1006,1 90 - 37.5
    12:40 6,4 4,8 4,8 syd 9,7 1006,1 89 - 37.5
    12:45 6,5 4,8 8,0 syd 8,0 1006,1 89 - 37.6
    12:50 6,5 4,7 8,0 ssø 11,3 1006,2 88 - 37.7
    12:55 6,4 4,6 4,8 ssø 8,0 1006,2 88 - 37.7
    13:00 6,4 4,6 4,8 ssø 8,0 1006,3 88 - 37.5
    13:05 6,4 4,6 4,8 ssø 11,3 1006,3 88 - 37.5
    13:10 6,4 4,8 8,0 ssø 11,3 1006,4 89 - 37.3
    13:15 6,5 4,8 4,8 9,7 1006,4 89 - 37.1
    13:20 6,5 5,0 4,8 ssø 8,0 1006,4 90 - 36.9
    13:25 6,6 5,0 9,7 ssø 12,9 1006,5 90 - 36.5
    13:30 6,5 5,0 4,8 8,0 1006,6 90 - 36.2
    13:35 6,5 5,0 9,7 9,7 1006,5 90 - 35.8
    13:40 6,5 5,1 8,0 9,7 1006,7 91 - 35.4
    13:45 6,5 5,1 8,0 11,3 1006,6 91 - 34.9
    13:50 6,5 5,1 4,8 8,0 1006,7 91 - 34.5
    13:55 6,5 5,1 9,7 ssø 9,7 1006,8 91 - 34
    14:00 6,5 5,3 8,0 11,3 1006,8 92 - 33.5
    14:05 6,6 5,3 9,7 14,5 1006,9 92 - 32.7
    14:10 6,6 5,3 8,0 11,3 1007,0 92 - 32.1
    14:15 6,6 5,4 8,0 9,7 1007,0 92 - 31.3
    14:20 6,7 5,6 8,0 14,5 1007,1 93 - 30.5
    14:25 6,7 5,6 11,1 8,5 1007,1 93 - 14
    14:30 6,7 5,7 8,0 14,5 1007,1 93 - 28.8
    14:35 6,7 5,7 9,7 12,9 1007,1 93 - 28.1
    14:40 6,7 5,8 11,3 19,3 1007,2 94 - 27.1
    14:45 6,7 5,8 8,0 11,3 1007,3 94 - 26.3
    14:50 6,7 6,0 9,7 11,3 1007,4 95 - 25.5
    14:55 6,7 6,0 9,7 12,9 1007,4 95 - 24.6
    15:00 6,7 6,0 11,3 22,5 1007,5 95 - 23.7
    15:05 6,7 6,1 11,3 14,5 1007,5 96 - 22.6
    15:10 6,8 6,2 11,3 11,3 1007,6 96 - 21.5
    15:15 6,8 6,2 12,9 24,1 1007,6 96 0,30 20.6
    15:20 6,9 6,3 11,3 19,3 1007,7 96 - 19.4
    15:25 7,1 6,6 11,3 ssø 19,3 1007,7 97 - 18.2
    15:30 7,2 6,7 9,7 ssø 14,5 1007,8 97 - 17
    15:35 7,3 6,8 12,9 ssø 16,1 1007,8 97 - 15.9
    15:40 7,4 6,9 12,9 ssø 19,3 1007,9 97 - 14.8
    15:45 7,5 7,1 12,9 syd 29,0 1008,0 97 - 13.5
    15:50 7,6 7,1 12,9 syd 16,1 1008,1 97 - 12.4
    15:55 7,6 7,2 11,3 syd 24,1 1008,2 97 - 11.2
    16:00 7,7 7,2 14,5 syd 25,7 1008,2 97 - 10.2
    16:05 7,7 7,2 16,1 syd 32,2 1008,3 97 - 9
    16:10 7,7 7,2 12,9 syd 16,1 1008,5 97 - 8
    16:15 7,7 7,2 11,3 syd 19,3 1008,5 97 - 6.9
    16:20 7,7 7,2 24,1 18,2 1008,7 97 - -
    16:25 7,7 7,2 14,5 ssø 20,9 1008,8 97 - 4.7
    16:30 7,7 7,2 11,3 syd 22,5 1008,9 97 - 3.5
    16:35 7,7 7,2 11,3 syd 19,3 1008,9 97 - -
    16:40 7,7 7,1 14,5 syd 22,5 1008,9 96 - -
    16:45 7,7 7,1 11,3 syd 19,3 1009,0 96 - -
    16:50 7,7 7,1 12,9 syd 19,3 1009,1 96 - -
    16:55 7,7 7,3 14,5 syd 22,5 1009,2 97 - -
    17:00 7,7 7,3 14,5 syd 24,1 1009,3 97 - -
    17:05 7,8 7,3 9,7 syd 14,5 1009,4 97 - -
    17:10 7,8 7,3 12,9 syd 25,7 1009,4 97 - -
    17:15 7,8 7,3 11,3 syd 20,9 1009,4 97 - -
    17:20 7,8 7,3 12,9 syd 19,3 1009,6 97 - -
    17:25 7,8 7,2 11,3 syd 25,7 1009,7 96 - -
    17:30 7,8 7,2 9,7 syd 20,9 1009,8 96 - -
    17:35 7,8 7,2 12,9 syd 24,1 1009,9 96 - -
    17:40 7,8 7,2 18,5 11,4 1010,1 96 - -
    17:45 7,8 7,2 19,3 syd 24,1 1010,1 96 - -
    17:50 7,8 7,2 14,5 syd 24,1 1010,2 96 - -
    17:55 7,8 7,2 8,0 syd 27,4 1010,2 96 - -
    18:00 7,8 7,2 12,9 syd 24,1 1010,3 96 - -
    18:05 7,8 7,2 24,1 syd 17,2 1010,4 96 - -
    18:10 7,8 7,2 20,9 ssø 9,7 1010,5 96 - -
    18:15 7,8 7,2 16,1 syd 22,5 1010,5 96 - -
    18:20 7,9 7,1 11,3 syd 20,9 1010,6 95 - -
    18:25 7,9 7,1 12,9 syd 20,9 1010,7 95 - -
    18:30 7,9 7,1 11,3 syd 24,1 1010,8 95 - -
    18:35 7,9 7,1 11,3 syd 19,3 1010,9 95 - -
    18:40 7,9 7,2 12,9 syd 24,1 1011,0 95 - -
    18:45 7,9 7,2 4,8 syd 19,3 1011,0 95 - -
    18:50 7,9 7,2 24,1 ssø 11,6 1011,2 95 - -
    18:55 7,9 7,0 11,3 syd 19,3 1011,2 94 - -
    19:00 7,9 7,0 12,9 syd 16,1 1011,2 94 - -
    19:05 7,9 7,1 11,3 syd 19,3 1011,3 94 - -
    19:10 7,9 7,0 12,9 syd 22,5 1011,4 94 - -
    19:15 7,9 7,0 11,3 syd 19,3 1011,4 94 - -
    19:20 7,9 7,1 12,9 syd 19,3 1011,5 94 - -
    19:25 7,9 7,1 12,9 syd 20,9 1011,5 94 - -
    19:30 7,9 7,1 16,1 syd 24,1 1011,6 94 - -
    19:35 7,9 7,1 14,5 ssø 20,9 1011,8 94 - -
    19:40 7,9 7,1 14,5 syd 20,9 1011,8 94 - -
    19:45 8,0 7,1 14,5 syd 19,3 1011,8 94 - -
    19:50 8,0 7,1 14,5 syd 27,4 1011,9 94 - -
    19:55 8,0 7,1 19,3 syd 24,1 1011,9 94 - -
    20:00 8,1 7,0 11,3 syd 20,9 1012,0 93 - -
    20:05 8,1 7,0 14,5 syd 22,5 1012,0 93 - -
    20:10 8,1 7,1 14,5 syd 25,7 1012,2 93 - -
    20:15 8,1 7,1 11,3 syd 22,5 1012,3 93 - -
    20:20 8,1 7,0 19,3 øsø 14,6 1012,2 93 - -
    20:25 8,1 7,0 12,9 syd 19,3 1012,3 93 - -
    20:30 8,1 7,0 14,5 syd 25,7 1012,4 93 - -
    20:35 8,0 6,9 14,5 syd 22,5 1012,6 93 - -
    20:40 8,0 6,9 8,0 syd 16,1 1012,7 93 - -
    20:45 7,9 6,9 12,9 ssø 27,4 1012,7 93 - -
    20:50 7,9 6,7 12,9 syd 22,5 1012,8 92 - -
    20:55 7,9 6,7 9,7 syd 19,3 1012,8 92 - -
    21:00 7,9 6,7 20,9 syd 32,2 1012,8 92 - -
    21:05 7,9 6,7 16,1 syd 33,8 1012,9 92 - -
    21:10 7,9 6,7 12,9 syd 22,5 1013,0 92 - -
    21:15 7,9 6,7 14,5 syd 27,4 1013,0 92 - -
    21:20 7,9 6,7 22,5 ssø 10,6 1013,0 92 - -
    21:25 7,9 6,7 12,9 ssø 19,3 1013,2 92 - -
    21:30 7,9 6,7 14,5 ssø 20,9 1013,3 92 - -
    21:35 7,9 6,7 11,3 ssø 19,3 1013,4 92 - -
    21:40 7,8 6,6 12,9 ssø 19,3 1013,5 92 - -
    21:45 7,8 6,6 14,5 ssø 20,9 1013,6 92 - -
    21:50 7,8 6,6 12,9 ssø 22,5 1013,7 92 - -
    21:55 7,7 6,5 12,9 ssø 19,3 1013,6 92 - -
    22:00 7,7 6,4 12,9 ssø 20,9 1013,6 92 - -
    22:05 7,7 6,6 8,0 syd 19,3 1013,7 93 - -

    Download your copy of this data-set  here

    Our weather-data as stored at Weather Underground. script udviklet af Jim McMurry. tilpasset til dette template Leuven-Template.eu

    du finder også vores vejrinformationer på:

    European Weather Network

    Weather Underground

    AWEKAS

    WeatherlinkIP

    Citizen Weather Observer Program (CWOP)

    udstyr som vi anvender:

    vejrstation
    Davis VP2+

    vejrprogram
    Weather Display

    vejrserver
    Dell E6400

    hjemmeside host
    Webhosting.dk

    Davis VP2+

    Weather Display

    Dell E6400

    Webhosting.dk